Time;durP1;ratioP1;P1;durP2;ratioP2;P2;SDS_P1;SDS_P2;PMS_P1;PMS_P2;Temp;Humidity;BMP_temperature;BMP_pressure;BME280_temperature;BME280_humidity;BME280_pressure;Samples;Min_cycle;Max_cycle;Signal;HPM_P1;HPM_P2
2022/06/15 00:01:22;;;;;;;1.40;1.10;;;;;;;14.02;60.65;101846.81;5072078;28;20098;-78
2022/06/15 00:03:48;;;;;;;1.20;1.10;;;;;;;14.00;60.90;101856.44;5072271;28;20025;-77
2022/06/15 00:06:17;;;;;;;1.38;1.23;;;;;;;13.94;60.99;101844.34;5072009;28;20051;-78
2022/06/15 00:08:44;;;;;;;0.90;0.90;;;;;;;13.89;61.25;101846.13;5071884;28;20052;-78
2022/06/15 00:11:17;;;;;;;1.00;1.00;;;;;;;13.86;61.15;101841.81;5072388;28;20039;-78
2022/06/15 00:13:44;;;;;;;2.33;1.20;;;;;;;13.84;61.30;101842.72;5071647;28;20054;-78
2022/06/15 00:16:10;;;;;;;0.98;0.98;;;;;;;13.81;61.19;101840.16;5073018;28;20380;-78
2022/06/15 00:18:36;;;;;;;1.20;1.20;;;;;;;13.77;61.55;101843.66;5072565;28;20027;-78
2022/06/15 00:21:03;;;;;;;1.97;1.30;;;;;;;13.72;61.46;101844.59;5071795;28;20020;-78
2022/06/15 00:23:30;;;;;;;1.05;1.05;;;;;;;13.69;61.77;101834.22;5072297;28;20028;-78
2022/06/15 00:25:57;;;;;;;1.48;1.30;;;;;;;13.66;62.29;101844.66;5072040;28;20024;-77
2022/06/15 00:28:23;;;;;;;1.50;1.30;;;;;;;13.63;61.82;101839.47;5071894;28;20028;-78
2022/06/15 00:30:52;;;;;;;1.40;1.30;;;;;;;13.59;61.86;101840.41;5072136;28;20029;-78
2022/06/15 00:33:21;;;;;;;1.35;1.23;;;;;;;13.55;62.01;101834.38;5072000;28;20048;-78
2022/06/15 00:36:09;;;;;;;1.45;1.35;;;;;;;13.51;61.99;101837.03;5071750;28;20085;-77
2022/06/15 00:38:38;;;;;;;1.77;1.52;;;;;;;13.45;62.38;101840.59;5072274;28;20029;-77
2022/06/15 00:41:07;;;;;;;1.40;1.30;;;;;;;13.39;62.23;101833.69;5071853;28;20072;-77
2022/06/15 00:43:44;;;;;;;1.40;1.30;;;;;;;13.37;62.38;101831.94;5071321;28;20073;-78
2022/06/15 00:46:30;;;;;;;1.50;1.40;;;;;;;13.34;62.49;101829.38;5072584;28;20032;-78
2022/06/15 00:49:03;;;;;;;1.85;1.30;;;;;;;13.29;62.89;101826.78;5071080;28;20029;-78
2022/06/15 00:51:29;;;;;;;1.50;1.40;;;;;;;13.26;62.75;101826.84;5075469;28;20032;-78
2022/06/15 00:53:57;;;;;;;1.50;1.33;;;;;;;13.23;62.79;101829.47;5075415;28;20116;-78
2022/06/15 00:56:24;;;;;;;1.60;1.50;;;;;;;13.19;62.67;101830.38;5074742;28;20077;-78
2022/06/15 00:58:51;;;;;;;;;;;;;;;13.13;63.00;101829.59;5075944;28;20024;-77
2022/06/15 01:01:17;;;;;;;1.60;1.50;;;;;;;13.09;63.25;101827.88;5075937;28;19966;-77
2022/06/15 01:03:44;;;;;;;1.87;1.50;;;;;;;13.06;63.19;101830.50;5074632;28;20110;-77
2022/06/15 01:06:30;;;;;;;2.20;1.80;;;;;;;13.02;63.13;101827.94;5075204;28;20048;-78
2022/06/15 01:09:06;;;;;;;1.55;1.45;;;;;;;12.98;63.01;101816.69;5075089;28;20020;-77
2022/06/15 01:11:56;;;;;;;1.50;1.38;;;;;;;12.94;63.75;101821.06;5075361;28;20033;-77
2022/06/15 01:14:47;;;;;;;1.45;1.35;;;;;;;12.89;63.83;101816.78;5075439;28;20051;-77
2022/06/15 01:17:25;;;;;;;1.70;1.60;;;;;;;12.84;63.93;101809.03;5074715;28;20054;-77
2022/06/15 01:20:05;;;;;;;1.80;1.60;;;;;;;12.80;63.84;101815.13;5074923;28;20477;-77
2022/06/15 01:22:47;;;;;;;1.83;1.30;;;;;;;12.76;65.44;101816.91;5075170;28;20055;-77
2022/06/15 01:25:12;;;;;;;1.33;1.23;;;;;;;12.72;64.47;101820.41;5074574;28;20040;-77
2022/06/15 01:28:15;;;;;;;1.40;1.20;;;;;;;12.71;65.77;101817.81;5074913;28;20029;-77
2022/06/15 01:30:55;;;;;;;1.15;1.00;;;;;;;12.67;64.75;101817.81;5074875;28;20040;-77
2022/06/15 01:33:27;;;;;;;1.20;1.10;;;;;;;12.66;64.95;101817.84;5074587;28;20020;-77
2022/06/15 01:36:14;;;;;;;1.20;1.20;;;;;;;12.69;64.96;101822.16;5074525;28;20027;-77
2022/06/15 01:39:03;;;;;;;1.08;1.08;;;;;;;12.67;64.88;101814.38;5073985;28;20032;-77
2022/06/15 01:41:34;;;;;;;1.20;1.20;;;;;;;12.65;64.68;101808.31;5075052;28;20169;-77
2022/06/15 01:44:13;;;;;;;1.55;1.40;;;;;;;12.67;64.67;101804.81;5074476;28;20020;-77
2022/06/15 01:46:41;;;;;;;1.55;1.45;;;;;;;12.67;64.76;101811.78;5074179;28;20032;-77
2022/06/15 01:49:14;;;;;;;1.60;1.27;;;;;;;12.65;64.68;101805.72;5075073;28;20465;-77
2022/06/15 01:51:42;;;;;;;1.50;1.40;;;;;;;12.65;65.35;101801.38;5074425;28;20028;-77
2022/06/15 01:54:11;;;;;;;1.40;1.30;;;;;;;12.62;65.39;101805.72;5075504;28;20020;-77
2022/06/15 01:56:47;;;;;;;1.05;1.05;;;;;;;12.59;65.08;101801.41;5076215;28;20051;-77
2022/06/15 01:59:38;;;;;;;1.20;1.20;;;;;;;12.57;65.73;101797.94;5074298;28;20024;-77
2022/06/15 02:02:22;;;;;;;1.10;1.10;;;;;;;12.52;65.60;101797.16;5073939;28;20437;-77
2022/06/15 02:05:14;;;;;;;1.30;1.20;;;;;;;12.50;65.69;101801.50;5074522;28;20066;-77
2022/06/15 02:08:02;;;;;;;1.38;1.27;;;;;;;12.49;65.58;101792.84;5073000;28;20045;-77
2022/06/15 02:10:51;;;;;;;1.30;1.20;;;;;;;12.48;65.79;101790.22;5044008;28;20036;-77
2022/06/15 02:13:47;;;;;;;1.05;0.95;;;;;;;12.46;66.21;101792.84;5073335;28;20033;-77
2022/06/15 02:16:34;;;;;;;1.25;1.25;;;;;;;12.43;66.00;101786.81;5074362;28;20099;-77
2022/06/15 02:19:04;;;;;;;0.88;0.85;;;;;;;12.39;66.17;101777.28;5073822;28;20035;-77
2022/06/15 02:21:29;;;;;;;1.02;1.02;;;;;;;12.39;65.84;101790.31;5073179;28;20025;-77
2022/06/15 02:24:00;;;;;;;1.27;1.17;;;;;;;12.38;65.44;101783.38;5073681;28;20029;-77
2022/06/15 02:26:30;;;;;;;1.73;1.63;;;;;;;12.33;67.38;101784.25;5073990;28;20069;-77
2022/06/15 02:29:00;;;;;;;1.50;1.40;;;;;;;12.32;66.12;101785.16;5073221;28;20935;-77
2022/06/15 02:31:27;;;;;;;1.42;1.33;;;;;;;12.31;65.91;101777.34;5073874;28;20170;-77
2022/06/15 02:33:54;;;;;;;2.05;1.50;;;;;;;12.33;66.22;101786.00;5073227;28;20040;-77
2022/06/15 02:36:20;;;;;;;1.40;1.30;;;;;;;12.32;65.97;101779.06;5073152;28;20032;-77
2022/06/15 02:38:49;;;;;;;1.50;1.40;;;;;;;12.32;65.88;101782.56;5073530;28;20029;-77
2022/06/15 02:41:15;;;;;;;1.52;1.42;;;;;;;12.31;65.69;101777.34;5073512;28;20077;-77
2022/06/15 02:43:42;;;;;;;1.43;1.33;;;;;;;12.30;65.99;101775.59;5072657;28;20028;-77
2022/06/15 02:46:10;;;;;;;1.67;1.58;;;;;;;12.31;65.81;101777.34;5073514;28;20020;-77
2022/06/15 02:48:37;;;;;;;1.40;1.40;;;;;;;12.29;65.71;101772.16;5072941;28;20027;-77
2022/06/15 02:51:14;;;;;;;1.30;1.20;;;;;;;12.26;66.06;101761.75;5073480;28;20113;-77
2022/06/15 02:53:41;;;;;;;1.25;1.25;;;;;;;12.25;65.82;101767.84;5073174;28;20021;-77
2022/06/15 02:56:09;;;;;;;1.48;1.38;;;;;;;12.23;66.00;101760.94;5073319;28;20453;-77
2022/06/15 02:58:40;;;;;;;1.52;1.30;;;;;;;12.22;66.07;101764.41;5073625;28;20031;-77
2022/06/15 03:01:05;;;;;;;1.30;1.20;;;;;;;12.20;65.89;101761.81;5073172;28;20021;-77
2022/06/15 03:03:31;;;;;;;1.40;1.30;;;;;;;12.16;65.96;101763.56;5072466;28;20033;-77
2022/06/15 03:05:57;;;;;;;1.40;1.30;;;;;;;12.17;65.80;101764.44;5072899;28;20048;-77
2022/06/15 03:08:22;;;;;;;1.50;1.40;;;;;;;12.16;66.08;101765.31;5072909;28;20630;-77
2022/06/15 03:10:49;;;;;;;1.60;1.50;;;;;;;12.14;65.83;101760.13;5071880;28;20020;-77
2022/06/15 03:13:14;;;;;;;1.45;1.40;;;;;;;12.10;66.71;101758.41;5072729;28;20024;-77
2022/06/15 03:15:40;;;;;;;1.40;1.30;;;;;;;12.07;67.08;101757.56;5073239;28;20103;-77
2022/06/15 03:18:05;;;;;;;1.57;1.47;;;;;;;12.04;68.76;101774.94;5072275;28;20431;-77
2022/06/15 03:20:31;;;;;;;1.10;1.10;;;;;;;12.02;67.01;101770.63;5072762;28;20016;-77
2022/06/15 03:22:56;;;;;;;1.40;1.30;;;;;;;11.99;67.34;101766.28;5072750;28;20058;-77
2022/06/15 03:25:25;;;;;;;1.30;1.20;;;;;;;11.96;67.68;101762.78;5072484;28;20020;-77
2022/06/15 03:27:50;;;;;;;1.27;1.13;;;;;;;11.93;67.91;101768.88;5073064;28;20051;-77
2022/06/15 03:30:16;;;;;;;1.30;1.20;;;;;;;11.91;67.20;101762.81;5073440;28;20392;-77
2022/06/15 03:32:41;;;;;;;1.20;1.10;;;;;;;11.89;67.28;101764.56;5072254;28;20369;-77
2022/06/15 03:35:10;;;;;;;0.95;0.95;;;;;;;11.86;66.99;101762.84;5073209;28;20294;-76
2022/06/15 03:37:37;;;;;;;0.90;0.90;;;;;;;11.87;67.17;101768.94;5072459;28;20107;-77
2022/06/15 03:40:08;;;;;;;1.20;1.05;;;;;;;11.86;67.25;101765.47;5073484;28;20036;-77
2022/06/15 03:42:34;;;;;;;1.20;1.10;;;;;;;11.87;67.30;101769.78;5068379;28;20431;-77
2022/06/15 03:44:59;;;;;;;1.40;1.30;;;;;;;11.87;67.33;101771.53;5072284;28;20024;-77
2022/06/15 03:47:25;;;;;;;1.87;1.50;;;;;;;11.87;67.29;101775.00;5072710;28;20055;-77
2022/06/15 03:49:52;;;;;;;1.40;1.30;;;;;;;11.86;67.63;101778.47;5072329;28;20020;-77
2022/06/15 03:52:20;;;;;;;1.17;1.17;;;;;;;11.84;67.30;101772.41;5071956;28;20028;-76
2022/06/15 03:54:45;;;;;;;1.58;1.48;;;;;;;11.85;67.31;101770.69;5072575;28;20380;-77
2022/06/15 03:57:12;;;;;;;2.77;1.57;;;;;;;11.85;67.81;101775.88;5073347;28;20021;-77
2022/06/15 03:59:37;;;;;;;2.60;1.58;;;;;;;11.83;67.41;101773.28;5071424;28;20017;-77
2022/06/15 04:02:03;;;;;;;1.70;1.40;;;;;;;11.83;67.29;101765.47;5072984;28;20428;-77
2022/06/15 04:04:28;;;;;;;1.67;1.57;;;;;;;11.81;67.74;101762.03;5072380;28;20013;-77
2022/06/15 04:06:54;;;;;;;2.20;1.40;;;;;;;11.84;68.16;101780.19;5071646;28;20493;-77
2022/06/15 04:09:21;;;;;;;1.40;1.30;;;;;;;11.84;67.96;101772.41;5072518;28;20039;-77
2022/06/15 04:11:59;;;;;;;;;;;;;;;11.86;67.84;101769.81;5072443;28;20051;-77
2022/06/15 04:14:28;;;;;;;1.38;1.30;;;;;;;11.86;67.60;101777.63;5072021;28;19966;-77
2022/06/15 04:16:53;;;;;;;1.40;1.30;;;;;;;11.87;67.94;101775.00;5072298;28;20020;-77
2022/06/15 04:19:23;;;;;;;1.93;1.37;;;;;;;11.89;68.44;101775.84;5073288;28;20036;-77
2022/06/15 04:21:48;;;;;;;1.70;1.60;;;;;;;11.90;67.84;101772.38;5071530;28;20392;-77
2022/06/15 04:24:19;;;;;;;1.70;1.60;;;;;;;11.92;68.21;101768.91;5074137;28;20036;-77
2022/06/15 04:26:46;;;;;;;1.17;1.17;;;;;;;11.94;67.76;101778.44;5073252;28;20024;-76
2022/06/15 04:29:12;;;;;;;1.38;1.05;;;;;;;11.97;68.38;101774.94;5076482;28;20021;-77
2022/06/15 04:31:38;;;;;;;1.20;1.20;;;;;;;11.98;68.66;101774.97;5075606;28;20178;-77
2022/06/15 04:34:04;;;;;;;1.30;1.20;;;;;;;12.01;68.55;101776.69;5075760;28;20020;-77
2022/06/15 04:36:30;;;;;;;1.33;1.23;;;;;;;12.04;68.45;101776.69;5076629;28;20279;-77
2022/06/15 04:38:56;;;;;;;1.60;1.50;;;;;;;12.06;70.91;101774.91;5075698;28;20051;-77
2022/06/15 04:41:21;;;;;;;1.33;1.30;;;;;;;12.11;68.77;101774.88;5075278;28;20388;-77
2022/06/15 04:43:46;;;;;;;2.07;1.87;;;;;;;12.13;70.63;101774.00;5075944;28;20020;-77
2022/06/15 04:46:12;;;;;;;1.70;1.60;;;;;;;12.18;69.08;101769.63;5076260;28;20020;-77
2022/06/15 04:48:37;;;;;;;1.57;1.47;;;;;;;12.23;71.05;101773.94;5074600;28;20033;-77
2022/06/15 04:51:17;;;;;;;2.10;1.80;;;;;;;12.25;70.41;101782.59;5075701;28;20024;-77
2022/06/15 04:53:43;;;;;;;1.80;1.55;;;;;;;12.30;69.16;101783.41;5075146;28;20056;-77
2022/06/15 04:56:09;;;;;;;1.43;1.33;;;;;;;12.34;70.87;101775.56;5075185;28;20131;-77
2022/06/15 04:58:34;;;;;;;2.40;2.20;;;;;;;12.39;69.06;101785.94;5075753;28;20040;-78
2022/06/15 05:01:00;;;;;;;3.40;2.80;;;;;;;12.44;71.74;101780.72;5076254;28;20017;-77
2022/06/15 05:03:28;;;;;;;9.37;4.23;;;;;;;12.51;70.92;101785.00;5074808;28;20354;-78
2022/06/15 05:06:00;;;;;;;6.80;3.53;;;;;;;12.59;71.20;101780.59;5075483;28;20028;-78
2022/06/15 05:08:25;;;;;;;4.20;2.80;;;;;;;12.67;70.16;101777.91;5075444;28;20078;-78
2022/06/15 05:10:51;;;;;;;2.37;2.17;;;;;;;12.74;69.74;101786.53;5074878;28;20060;-77
2022/06/15 05:13:16;;;;;;;3.63;2.20;;;;;;;12.78;69.08;101786.50;5075759;28;20032;-77
2022/06/15 05:15:41;;;;;;;2.30;2.10;;;;;;;12.84;69.93;101782.97;5075155;28;20370;-77
2022/06/15 05:18:09;;;;;;;3.40;2.37;;;;;;;12.90;69.38;101784.66;5075353;28;20028;-77
2022/06/15 05:20:36;;;;;;;6.30;2.58;;;;;;;12.95;69.08;101783.72;5075084;28;20029;-77
2022/06/15 05:23:02;;;;;;;3.15;2.38;;;;;;;12.98;71.00;101775.88;5075965;28;20032;-77
2022/06/15 05:25:28;;;;;;;8.03;4.40;;;;;;;13.05;70.69;101783.63;5075697;28;20032;-77
2022/06/15 05:27:53;;;;;;;6.30;3.73;;;;;;;13.12;70.15;101788.75;5074746;28;20032;-78
2022/06/15 05:30:19;;;;;;;7.27;3.90;;;;;;;13.18;71.16;101792.16;5074943;28;20112;-78
2022/06/15 05:32:44;;;;;;;9.40;4.30;;;;;;;13.23;70.28;101779.97;5074626;28;20032;-78
2022/06/15 05:35:10;;;;;;;6.23;3.43;;;;;;;13.30;69.15;101786.81;5076950;28;20023;-78
2022/06/15 05:37:36;;;;;;;4.90;3.20;;;;;;;13.36;70.30;101788.47;5081141;28;20013;-77
2022/06/15 05:40:01;;;;;;;6.73;3.40;;;;;;;13.41;69.46;101781.53;5083139;28;20028;-77
2022/06/15 05:42:29;;;;;;;4.83;3.17;;;;;;;13.46;70.39;101782.31;5083800;28;20036;-78
2022/06/15 05:44:55;;;;;;;4.47;3.40;;;;;;;13.54;70.73;101790.91;5080158;28;20033;-78
2022/06/15 05:47:23;;;;;;;8.30;4.27;;;;;;;13.61;69.65;101788.22;5074681;28;20473;-78
2022/06/15 05:49:49;;;;;;;8.75;4.80;;;;;;;13.70;70.24;101794.19;5074589;28;20088;-78
2022/06/15 05:52:17;;;;;;;6.50;3.70;;;;;;;13.78;70.17;101795.81;5073857;28;20488;-78
2022/06/15 05:54:42;;;;;;;6.55;3.60;;;;;;;13.84;69.56;101786.19;5075249;28;20024;-78
2022/06/15 05:57:19;;;;;;;4.07;2.93;;;;;;;13.93;69.17;101787.81;5094187;28;20064;-78
2022/06/15 05:59:48;;;;;;;3.20;2.65;;;;;;;13.99;69.83;101779.88;5093111;28;20047;-78
2022/06/15 06:02:16;;;;;;;4.60;3.05;;;;;;;14.27;69.13;101792.53;5095284;28;20024;-78
2022/06/15 06:04:41;;;;;;;6.60;3.75;;;;;;;14.75;67.32;101790.91;5093269;28;20031;-78
2022/06/15 06:07:09;;;;;;;5.50;3.43;;;;;;;16.05;67.35;101788.31;5079909;28;20388;-78
2022/06/15 06:09:34;;;;;;;7.80;3.88;;;;;;;18.45;57.62;101789.50;5084293;28;20111;-78
2022/06/15 06:12:00;;;;;;;4.40;3.07;;;;;;;20.11;58.61;101785.25;5081188;28;20115;-78
2022/06/15 06:14:25;;;;;;;8.33;4.23;;;;;;;21.20;48.12;101792.97;5075157;28;20492;-78
2022/06/15 06:16:50;;;;;;;4.50;3.27;;;;;;;20.99;53.97;101784.22;5074386;28;20078;-78
2022/06/15 06:19:16;;;;;;;5.20;3.60;;;;;;;20.52;52.71;101782.72;5073870;28;20017;-78
2022/06/15 06:21:44;;;;;;;4.53;2.90;;;;;;;20.09;51.54;101784.50;5074234;28;20035;-78
2022/06/15 06:24:10;;;;;;;8.70;4.38;;;;;;;19.58;50.98;101790.81;5074122;28;20020;-78
2022/06/15 06:26:36;;;;;;;8.52;4.20;;;;;;;19.48;51.91;101793.84;5083606;28;20102;-79
2022/06/15 06:29:03;;;;;;;7.00;3.63;;;;;;;19.39;51.96;101795.03;5093760;28;20035;-78
2022/06/15 06:31:28;;;;;;;6.72;3.63;;;;;;;19.43;52.28;101788.75;5093293;28;20036;-78
2022/06/15 06:33:53;;;;;;;6.20;3.50;;;;;;;19.49;53.20;101788.50;5093284;28;20436;-79
2022/06/15 06:36:34;;;;;;;8.83;4.50;;;;;;;19.38;51.86;101801.19;5093410;28;20028;-78
2022/06/15 06:39:02;;;;;;;4.75;3.13;;;;;;;19.42;53.06;101802.81;5091723;28;20028;-78
2022/06/15 06:41:29;;;;;;;5.03;3.47;;;;;;;19.51;53.61;101802.47;5085746;28;20100;-77
2022/06/15 06:43:55;;;;;;;4.15;2.97;;;;;;;19.56;53.78;101797.03;5090835;28;20031;-79
2022/06/15 06:46:21;;;;;;;5.20;3.00;;;;;;;19.72;51.52;101790.25;5089374;28;20028;-79
2022/06/15 06:48:47;;;;;;;6.28;3.70;;;;;;;19.70;51.55;101799.16;5071712;28;20035;-79
2022/06/15 06:51:13;;;;;;;9.18;4.35;;;;;;;19.45;52.90;101794.81;5088203;28;20024;-79
2022/06/15 06:53:39;;;;;;;4.50;2.90;;;;;;;19.46;53.46;101796.53;5068658;22;20412;-79
2022/06/15 06:56:07;;;;;;;5.65;3.40;;;;;;;19.61;53.09;101800.34;5052521;28;20409;-79
2022/06/15 06:58:33;;;;;;;6.85;3.20;;;;;;;19.77;53.13;101803.25;5070459;28;20074;-79
2022/06/15 07:00:59;;;;;;;9.87;4.37;;;;;;;19.72;51.19;101800.81;5072607;28;20032;-80
2022/06/15 07:03:24;;;;;;;4.43;3.13;;;;;;;19.78;53.00;101799.69;5072728;28;20020;-79
2022/06/15 07:05:50;;;;;;;3.77;3.00;;;;;;;19.83;52.86;101804.78;5064756;28;20287;-80
2022/06/15 07:08:16;;;;;;;10.60;4.47;;;;;;;19.76;52.53;101806.81;5053519;28;20024;-80
2022/06/15 07:10:41;;;;;;;4.45;3.30;;;;;;;19.81;53.17;101803.97;5053170;28;20386;-79
2022/06/15 07:13:07;;;;;;;6.20;4.43;;;;;;;19.87;50.99;101801.16;5053015;28;20041;-79
2022/06/15 07:15:32;;;;;;;7.35;3.60;;;;;;;19.81;52.77;101802.22;5052921;28;20033;-80
2022/06/15 07:17:59;;;;;;;10.70;4.60;;;;;;;19.87;51.73;101803.78;5052727;28;20025;-79
2022/06/15 07:20:25;;;;;;;6.53;3.50;;;;;;;20.00;51.08;101810.28;5053050;28;20127;-80
2022/06/15 07:22:50;;;;;;;6.03;3.80;;;;;;;20.16;51.97;101815.78;5052990;28;20025;-74
2022/06/15 07:25:16;;;;;;;8.20;3.47;;;;;;;20.16;52.65;101814.94;5066711;28;20035;-74
2022/06/15 07:27:41;;;;;;;7.33;4.57;;;;;;;20.26;51.16;101815.44;5072127;28;20070;-74
2022/06/15 07:30:11;;;;;;;8.13;3.67;;;;;;;20.16;51.09;101814.94;5070784;28;20040;-75
2022/06/15 07:32:38;;;;;;;3.45;2.67;;;;;;;20.23;51.87;101811.13;5072408;28;20035;-74
2022/06/15 07:35:04;;;;;;;6.68;3.65;;;;;;;20.26;50.54;101820.72;5066530;28;20094;-79
2022/06/15 07:37:30;;;;;;;6.47;3.40;;;;;;;20.29;49.95;101816.16;5051605;28;20032;-80
2022/06/15 07:39:55;;;;;;;4.00;2.60;;;;;;;20.40;51.31;101810.44;5052451;28;20025;-78
2022/06/15 07:42:20;;;;;;;5.73;3.30;;;;;;;20.47;48.90;101813.66;5053778;28;20033;-80
2022/06/15 07:44:46;;;;;;;5.87;2.80;;;;;;;20.47;50.95;101811.91;5040531;28;20045;-80
2022/06/15 07:49:55;;;;;;;5.10;2.97;;;;;;;20.64;48.87;101813.84;5055495;28;20086;-80
2022/06/15 07:52:22;;;;;;;3.93;2.87;;;;;;;20.72;51.00;101812.66;5061743;28;20040;-80
2022/06/15 07:54:49;;;;;;;4.05;2.80;;;;;;;20.89;50.85;101810.16;5060492;28;20042;-79
2022/06/15 07:57:15;;;;;;;8.27;3.72;;;;;;;20.86;48.94;101815.59;5070209;28;20025;-79
2022/06/15 07:59:40;;;;;;;5.57;3.00;;;;;;;20.95;49.46;101816.94;5069811;28;20033;-80
2022/06/15 08:02:07;;;;;;;3.60;2.60;;;;;;;21.02;50.54;101813.13;5069752;28;20432;-80
2022/06/15 08:04:32;;;;;;;3.38;2.47;;;;;;;21.23;50.03;101816.56;5057554;28;20029;-80
2022/06/15 08:06:58;;;;;;;4.83;2.60;;;;;;;21.40;49.99;101814.97;5072089;28;20107;-80
2022/06/15 08:09:23;;;;;;;7.10;3.58;;;;;;;21.23;47.26;101818.38;5075591;28;20385;-79
2022/06/15 08:14:58;;;;;;;7.72;3.13;;;;;;;21.07;46.08;101824.31;5076487;28;20447;-80
2022/06/15 08:17:40;;;;;;;7.97;3.58;;;;;;;20.83;48.36;101821.00;5072161;28;20085;-79
2022/06/15 08:20:16;;;;;;;6.32;3.50;;;;;;;20.89;48.27;101809.31;5075219;28;20484;-80
2022/06/15 08:22:45;;;;;;;7.60;3.50;;;;;;;20.97;48.14;101823.03;5076472;28;20028;-80
2022/06/15 08:25:14;;;;;;;6.38;3.28;;;;;;;21.06;47.79;101812.06;5076075;28;20024;-80
2022/06/15 08:27:43;;;;;;;6.60;2.88;;;;;;;21.21;48.47;101818.47;5075546;28;20099;-81
2022/06/15 08:30:12;;;;;;;4.18;2.70;;;;;;;21.39;46.48;101822.03;5076076;28;20104;-79
2022/06/15 08:32:39;;;;;;;6.18;3.03;;;;;;;21.44;45.53;101819.19;5075750;28;20036;-80
2022/06/15 08:35:06;;;;;;;4.50;2.53;;;;;;;21.56;46.90;101810.69;5075532;28;20025;-80
2022/06/15 08:37:31;;;;;;;3.80;2.25;;;;;;;21.68;44.99;101816.34;5076013;28;20507;-80
2022/06/15 08:39:57;;;;;;;3.60;2.30;;;;;;;21.77;46.30;101809.78;5075543;28;20028;-80
2022/06/15 08:42:58;;;;;;;9.63;3.23;;;;;;;21.56;45.49;101820.41;5075170;28;20028;-80
2022/06/15 08:45:41;;;;;;;3.20;2.30;;;;;;;21.68;44.56;101814.59;5076132;28;20028;-80
2022/06/15 08:48:44;;;;;;;3.83;2.00;;;;;;;21.92;45.42;101814.34;5075006;28;20036;-81
2022/06/15 08:51:36;;;;;;;6.68;2.80;;;;;;;21.81;43.78;101809.56;5075011;28;20388;-81
2022/06/15 08:54:18;;;;;;;4.82;2.72;;;;;;;21.88;45.44;101808.38;5075056;28;20041;-81
2022/06/15 08:56:53;;;;;;;5.78;2.65;;;;;;;22.03;45.25;101801.47;5075569;28;20028;-81
2022/06/15 08:59:33;;;;;;;7.68;3.25;;;;;;;21.95;44.75;101811.56;5070641;28;20082;-79
2022/06/15 09:02:08;;;;;;;5.82;3.13;;;;;;;22.01;45.08;101816.53;5054236;28;20186;-79
2022/06/15 09:05:11;;;;;;;4.90;2.67;;;;;;;22.18;44.91;101809.59;5055478;28;20032;-79
2022/06/15 09:08:14;;;;;;;5.88;2.83;;;;;;;22.35;44.05;101803.44;5051985;28;20041;-79
2022/06/15 09:11:12;;;;;;;4.03;2.50;;;;;;;22.51;44.47;101793.00;5067998;28;20033;-79
2022/06/15 09:13:50;;;;;;;4.30;2.20;;;;;;;22.66;44.80;101801.94;5074046;28;20089;-79
2022/06/15 09:16:40;;;;;;;3.78;2.70;;;;;;;22.72;42.62;101795.47;5074704;28;20035;-78
2022/06/15 09:19:09;;;;;;;5.13;2.72;;;;;;;22.63;43.07;101807.38;5075142;28;20023;-79
2022/06/15 09:21:37;;;;;;;5.93;2.55;;;;;;;22.66;42.81;101804.59;5075261;28;20021;-79
2022/06/15 09:24:09;;;;;;;7.82;2.88;;;;;;;22.62;42.89;101801.25;5074100;28;20100;-78
2022/06/15 09:26:49;;;;;;;4.30;2.55;;;;;;;22.80;43.37;101803.88;5074951;28;20013;-80
2022/06/15 09:29:23;;;;;;;3.47;2.20;;;;;;;23.03;41.94;101807.94;5074337;28;20032;-79
2022/06/15 09:31:59;;;;;;;4.85;2.25;;;;;;;23.16;41.01;101813.47;5074521;28;20036;-79
2022/06/15 09:34:36;;;;;;;5.47;2.50;;;;;;;23.27;41.89;101808.47;5073113;28;20491;-80
2022/06/15 09:37:08;;;;;;;5.90;2.88;;;;;;;23.19;40.42;101808.06;5073255;28;20032;-79
2022/06/15 09:39:36;;;;;;;4.03;2.42;;;;;;;23.24;42.23;101806.00;5054597;28;20072;-80
2022/06/15 09:42:18;;;;;;;2.80;2.15;;;;;;;23.46;42.60;101803.97;5054773;28;20059;-79
2022/06/15 09:45:08;;;;;;;4.60;2.10;;;;;;;23.68;41.47;101795.69;5053712;28;20055;-79
2022/06/15 09:47:39;;;;;;;2.97;2.10;;;;;;;23.80;39.64;101795.00;5054608;28;20029;-77
2022/06/15 09:50:22;;;;;;;3.20;1.88;;;;;;;23.95;42.00;101795.09;5054663;28;20025;-77
2022/06/15 09:53:18;;;;;;;2.67;1.73;;;;;;;24.21;42.25;101801.56;5054132;28;20049;-78
2022/06/15 09:55:51;;;;;;;4.18;2.33;;;;;;;24.28;38.45;101794.09;5054317;28;20056;-79
2022/06/15 09:58:18;;;;;;;6.10;3.10;;;;;;;23.89;37.78;101797.13;5054099;28;20029;-80
2022/06/15 10:00:46;;;;;;;8.35;3.20;;;;;;;23.49;39.57;101807.31;5054363;28;20036;-79
2022/06/15 10:03:38;;;;;;;5.57;3.00;;;;;;;23.26;39.61;101797.94;5055558;28;20057;-79
2022/06/15 10:06:24;;;;;;;5.13;2.78;;;;;;;23.35;40.32;101793.97;5052881;28;20094;-80
2022/06/15 10:08:55;;;;;;;7.07;3.00;;;;;;;23.51;40.53;101786.03;5068847;28;20125;-80
2022/06/15 10:11:33;;;;;;;6.05;2.92;;;;;;;23.49;41.47;101788.78;5074171;28;20052;-79
2022/06/15 10:14:26;;;;;;;10.02;3.40;;;;;;;23.48;39.96;101796.78;5073906;28;20055;-79
2022/06/15 10:17:18;;;;;;;5.75;2.50;;;;;;;23.54;40.13;101788.50;5073655;28;20028;-79
2022/06/15 10:19:48;;;;;;;4.60;2.40;;;;;;;23.44;39.79;101798.75;5072951;28;20107;-79
2022/06/15 10:22:25;;;;;;;2.60;2.10;;;;;;;23.71;40.09;101791.06;5073560;28;20039;-81
2022/06/15 10:24:51;;;;;;;2.58;1.83;;;;;;;24.09;41.31;101789.00;5073398;28;20024;-78
2022/06/15 10:27:24;;;;;;;2.45;1.92;;;;;;;24.41;39.27;101784.47;5071995;28;20025;-78
2022/06/15 10:30:14;;;;;;;3.53;2.10;;;;;;;24.62;40.19;101787.63;5072602;28;20119;-79
2022/06/15 10:33:13;;;;;;;2.10;1.88;;;;;;;24.86;41.15;101791.59;5070859;28;20420;-79
2022/06/15 10:35:38;;;;;;;8.10;3.00;;;;;;;24.86;37.76;101787.13;5068723;28;20091;-78
2022/06/15 10:38:11;;;;;;;5.57;2.50;;;;;;;24.90;37.47;101780.69;5058126;28;20472;-79
2022/06/15 10:40:39;;;;;;;6.53;2.65;;;;;;;24.73;38.61;101787.03;5071796;28;20036;-79
2022/06/15 10:43:18;;;;;;;5.95;2.70;;;;;;;24.46;36.80;101781.56;5073172;28;20115;-79
2022/06/15 10:45:53;;;;;;;4.57;2.15;;;;;;;24.77;39.29;101787.69;5073121;28;20039;-79
2022/06/15 10:48:23;;;;;;;8.93;3.08;;;;;;;24.62;38.15;101784.16;5071153;28;20385;-80
2022/06/15 10:51:23;;;;;;;4.95;2.50;;;;;;;24.75;38.41;101781.63;5072643;28;20386;-80
2022/06/15 10:53:52;;;;;;;3.85;2.20;;;;;;;25.02;39.50;101779.06;5061122;28;20401;-81
2022/06/15 11:02:18;;;;;;;7.75;3.30;;;;;;;24.92;36.98;101776.16;5072979;28;20043;-80
2022/06/15 11:04:43;;;;;;;4.90;2.25;;;;;;;25.07;38.28;101768.16;5071192;28;20468;-80
2022/06/15 11:07:25;;;;;;;7.67;2.77;;;;;;;24.93;36.73;101767.25;5073017;28;20097;-79
2022/06/15 11:09:53;;;;;;;5.88;2.97;;;;;;;24.91;37.75;101763.81;5072011;28;20096;-80
2022/06/15 11:12:23;;;;;;;3.60;2.30;;;;;;;25.05;37.38;101759.47;5073044;28;20127;-80
2022/06/15 11:15:00;;;;;;;2.83;1.90;;;;;;;25.34;38.54;101768.22;5071826;28;20055;-80
2022/06/15 11:20:32;;;;;;;3.58;2.30;;;;;;;25.68;35.29;101766.09;5073517;28;20122;-79
2022/06/15 11:23:19;;;;;;;3.83;2.42;;;;;;;25.85;37.95;101759.66;5071952;28;20036;-80
2022/06/15 11:25:52;;;;;;;2.72;2.00;;;;;;;25.99;37.58;101752.59;5071846;28;20516;-79
2022/06/15 11:28:41;;;;;;;4.20;2.20;;;;;;;26.07;36.85;101755.59;5071294;28;20039;-81
2022/06/15 11:31:14;;;;;;;2.25;1.90;;;;;;;26.17;36.14;101758.53;5070339;28;20037;-81
2022/06/15 11:33:49;;;;;;;2.75;1.77;;;;;;;26.31;37.63;101761.09;5071706;28;20495;-80
2022/06/15 11:36:34;;;;;;;3.88;2.08;;;;;;;26.45;35.05;101765.47;5072386;28;20089;-81
2022/06/15 11:39:18;;;;;;;6.10;2.30;;;;;;;26.45;35.19;101761.97;5072781;28;20020;-80
2022/06/15 11:41:49;;;;;;;3.58;1.67;;;;;;;26.59;37.24;101759.19;5072528;28;20031;-80
2022/06/15 11:44:19;;;;;;;2.08;1.75;;;;;;;26.84;36.34;101765.50;5072172;28;20021;-81
2022/06/15 11:46:53;;;;;;;1.77;1.60;;;;;;;27.04;36.23;101771.25;5072590;28;20069;-81
2022/06/15 11:49:37;;;;;;;1.92;1.58;;;;;;;27.23;36.10;101762.78;5072864;28;20354;-81
2022/06/15 11:52:27;;;;;;;3.08;2.08;;;;;;;27.18;35.96;101763.13;5071716;28;20480;-80
2022/06/15 11:55:09;;;;;;;4.97;2.30;;;;;;;27.05;35.88;101757.84;5072409;28;20032;-81
2022/06/15 11:57:46;;;;;;;2.35;1.90;;;;;;;27.13;35.50;101760.78;5071932;28;20042;-80
2022/06/15 12:00:27;;;;;;;5.80;2.58;;;;;;;26.78;34.74;101760.63;5072932;28;20056;-80
2022/06/15 12:03:12;;;;;;;3.92;2.10;;;;;;;26.88;35.50;101755.50;5072216;28;20055;-80